Time;durP1;ratioP1;P1;durP2;ratioP2;P2;SDS_P1;SDS_P2;PMS_P1;PMS_P2;Temp;Humidity;BMP_temperature;BMP_pressure;BME280_temperature;BME280_humidity;BME280_pressure;Samples;Min_cycle;Max_cycle;Signal;HPM_P1;HPM_P2
2021/12/05 00:22:34;;;;;;;10.70;6.97;;;1.70;89.80;;;;;;5069978;28;20036;-59
2021/12/05 00:25:02;;;;;;;8.77;6.40;;;1.80;89.90;;;;;;5070095;28;20025;-59
2021/12/05 00:27:43;;;;;;;8.93;6.32;;;1.80;89.80;;;;;;5060685;28;20032;-59
2021/12/05 00:31:19;;;;;;;9.00;6.63;;;1.80;89.70;;;;;;5069693;28;20036;-57
2021/12/05 00:39:06;;;;;;;8.50;6.53;;;1.70;89.70;;;;;;5057604;28;20147;-59
2021/12/05 01:03:40;;;;;;;7.68;5.78;;;1.80;89.90;;;;;;5048650;28;20063;-60
2021/12/05 01:09:21;;;;;;;9.00;6.35;;;1.70;89.80;;;;;;5061552;28;20365;-59
2021/12/05 01:14:24;;;;;;;8.52;5.80;;;1.70;89.80;;;;;;5067069;28;20043;-60
2021/12/05 01:16:51;;;;;;;8.68;6.82;;;1.70;89.80;;;;;;5049262;28;20036;-57
2021/12/05 01:19:21;;;;;;;8.75;5.88;;;1.70;89.70;;;;;;5058022;28;20039;-59
2021/12/05 01:21:54;;;;;;;7.82;5.30;;;1.70;89.80;;;;;;5047576;28;20029;-59
2021/12/05 01:26:58;;;;;;;7.32;5.38;;;1.70;89.90;;;;;;5069561;28;20048;-59
2021/12/05 01:29:42;;;;;;;7.70;5.68;;;1.70;89.80;;;;;;5069482;28;20052;-57
2021/12/05 01:38:31;;;;;;;7.68;5.22;;;1.70;89.90;;;;;;5059801;28;20082;-59
2021/12/05 01:52:13;;;;;;;7.13;5.60;;;1.70;90.00;;;;;;5080378;28;20048;-59
2021/12/05 02:43:16;;;;;;;8.25;3.97;;;1.70;89.90;;;;;;5072619;28;20036;-63
2021/12/05 02:45:47;;;;;;;6.10;4.10;;;1.70;89.90;;;;;;5069961;28;20028;-63
2021/12/05 02:48:15;;;;;;;6.53;4.40;;;1.70;89.90;;;;;;5072305;28;20052;-63
2021/12/05 02:50:44;;;;;;;4.85;3.70;;;1.70;89.80;;;;;;5076202;28;20035;-63
2021/12/05 02:53:29;;;;;;;7.10;3.90;;;1.70;89.80;;;;;;5071591;28;20031;-63
2021/12/05 02:55:57;;;;;;;6.72;4.63;;;1.70;89.70;;;;;;5072227;28;20027;-63
2021/12/05 02:58:41;;;;;;;6.75;4.55;;;1.60;89.70;;;;;;5071826;28;20382;-63
2021/12/05 03:01:19;;;;;;;6.70;4.00;;;1.60;89.80;;;;;;5071780;28;20024;-62
2021/12/05 03:03:47;;;;;;;5.38;3.58;;;1.70;89.90;;;;;;5051922;28;20054;-62
2021/12/05 03:06:23;;;;;;;6.00;3.78;;;1.60;89.90;;;;;;5058181;28;20032;-62
2021/12/05 03:09:12;;;;;;;5.45;3.78;;;1.60;89.90;;;;;;5071622;28;20043;-62
2021/12/05 03:11:41;;;;;;;5.78;3.83;;;1.70;90.00;;;;;;5078287;28;20040;-62
2021/12/05 03:14:08;;;;;;;5.40;3.90;;;1.70;89.90;;;;;;5066701;28;20465;-61
2021/12/05 03:16:36;;;;;;;7.10;4.30;;;1.70;89.90;;;;;;5071641;28;20029;-61
2021/12/05 03:19:05;;;;;;;6.82;4.25;;;1.60;90.00;;;;;;5070789;28;20032;-61
2021/12/05 03:21:34;;;;;;;7.20;4.33;;;1.60;89.90;;;;;;5071294;28;20047;-60
2021/12/05 03:24:02;;;;;;;7.28;4.88;;;1.60;90.00;;;;;;5071322;28;20278;-60
2021/12/05 03:26:35;;;;;;;7.57;5.18;;;1.70;90.00;;;;;;5071678;28;20056;-58
2021/12/05 03:29:05;;;;;;;6.13;4.55;;;1.70;90.00;;;;;;5071566;28;20106;-60
2021/12/05 03:31:32;;;;;;;7.47;4.65;;;1.70;90.00;;;;;;5071086;28;20119;-58
2021/12/05 03:34:00;;;;;;;7.25;5.13;;;1.60;89.90;;;;;;5069586;28;20066;-59
2021/12/05 03:36:27;;;;;;;5.68;3.85;;;1.70;89.80;;;;;;5052907;28;20071;-61
2021/12/05 03:38:52;;;;;;;6.95;4.68;;;1.60;89.80;;;;;;5071028;28;20029;-60
2021/12/05 03:41:20;;;;;;;6.43;4.75;;;1.60;89.90;;;;;;5070361;28;20027;-60
2021/12/05 03:43:51;;;;;;;8.20;5.22;;;1.60;90.00;;;;;;5071282;28;20025;-61
2021/12/05 03:46:19;;;;;;;7.47;4.90;;;1.50;89.90;;;;;;5070813;28;20016;-61
2021/12/05 03:48:50;;;;;;;6.88;4.57;;;1.60;89.90;;;;;;5071061;28;20040;-60
2021/12/05 03:51:21;;;;;;;6.97;5.43;;;1.60;89.90;;;;;;5070656;28;20107;-61
2021/12/05 03:53:48;;;;;;;7.35;4.85;;;1.50;89.90;;;;;;5062321;28;20024;-61
2021/12/05 03:56:19;;;;;;;7.10;5.28;;;1.60;90.00;;;;;;5070804;28;20021;-62
2021/12/05 03:58:51;;;;;;;9.60;4.53;;;1.60;90.10;;;;;;5036216;28;20033;-62
2021/12/05 04:01:18;;;;;;;6.82;4.63;;;1.60;90.00;;;;;;5034528;28;20033;-62
2021/12/05 04:03:46;;;;;;;7.63;4.90;;;1.60;89.90;;;;;;5054686;28;20032;-62
2021/12/05 04:06:18;;;;;;;7.90;5.18;;;1.60;89.90;;;;;;5070609;28;20044;-63
2021/12/05 04:08:45;;;;;;;6.43;4.45;;;1.60;90.00;;;;;;5070979;28;20025;-62
2021/12/05 04:11:21;;;;;;;7.82;5.28;;;1.60;90.00;;;;;;5070663;28;20028;-63
2021/12/05 04:13:48;;;;;;;7.15;4.78;;;1.60;90.00;;;;;;5056053;28;20028;-62
2021/12/05 04:16:16;;;;;;;6.88;4.65;;;1.60;90.10;;;;;;5070644;28;20067;-62
2021/12/05 04:18:45;;;;;;;6.80;5.32;;;1.60;89.90;;;;;;5069690;28;20040;-62
2021/12/05 04:21:14;;;;;;;7.65;5.28;;;1.60;89.90;;;;;;5069678;28;20036;-62
2021/12/05 04:23:39;;;;;;;6.25;4.63;;;1.60;90.00;;;;;;5054918;28;20039;-63
2021/12/05 04:26:08;;;;;;;6.55;4.32;;;1.60;90.00;;;;;;5070217;28;20096;-63
2021/12/05 04:28:35;;;;;;;6.57;5.03;;;1.60;90.00;;;;;;5069634;28;20110;-64
2021/12/05 04:31:03;;;;;;;8.32;5.55;;;1.60;90.00;;;;;;5069942;28;20028;-65
2021/12/05 04:33:30;;;;;;;8.60;5.07;;;1.60;90.10;;;;;;5069539;28;20033;-66
2021/12/05 04:35:57;;;;;;;7.90;5.45;;;1.50;90.00;;;;;;5070092;28;20464;-66
2021/12/05 04:38:23;;;;;;;6.75;4.90;;;1.60;90.10;;;;;;5055126;28;20116;-66
2021/12/05 04:40:50;;;;;;;9.05;6.13;;;1.60;90.00;;;;;;5064009;28;20042;-65
2021/12/05 04:43:17;;;;;;;6.70;5.32;;;1.60;90.00;;;;;;5070709;28;20362;-65
2021/12/05 04:45:45;;;;;;;7.55;5.18;;;1.60;90.10;;;;;;5070146;28;20028;-65
2021/12/05 04:48:16;;;;;;;7.38;5.18;;;1.60;90.10;;;;;;5065781;28;20067;-66
2021/12/05 04:50:44;;;;;;;8.15;5.38;;;1.50;90.20;;;;;;5069927;28;20474;-66
2021/12/05 04:53:11;;;;;;;7.38;5.43;;;1.60;90.10;;;;;;5070567;28;20361;-66
2021/12/05 04:55:38;;;;;;;6.35;4.40;;;1.60;90.10;;;;;;5069402;28;20041;-67
2021/12/05 04:58:06;;;;;;;9.00;6.22;;;1.50;89.90;;;;;;5054979;28;20028;-68
2021/12/05 05:00:42;;;;;;;6.97;4.95;;;1.50;90.10;;;;;;5069307;28;20461;-67
2021/12/05 05:03:10;;;;;;;7.55;5.47;;;1.50;90.10;;;;;;5055489;28;20043;-66
2021/12/05 05:05:43;;;;;;;7.95;5.82;;;1.50;90.10;;;;;;5069734;28;20040;-64
2021/12/05 05:08:08;;;;;;;7.32;5.63;;;1.50;90.30;;;;;;5069953;28;20040;-63
2021/12/05 05:10:36;;;;;;;7.43;5.35;;;1.50;90.30;;;;;;5075482;28;20036;-63
2021/12/05 05:13:03;;;;;;;8.38;5.80;;;1.50;90.30;;;;;;5069520;28;20039;-63
2021/12/05 05:15:31;;;;;;;8.25;5.47;;;1.50;90.30;;;;;;5053256;28;20362;-63
2021/12/05 05:17:59;;;;;;;7.65;5.45;;;1.50;90.40;;;;;;5069541;28;20126;-64
2021/12/05 05:20:36;;;;;;;9.57;5.90;;;1.50;90.30;;;;;;5069660;28;20500;-65
2021/12/05 05:23:42;;;;;;;8.10;5.13;;;1.50;90.30;;;;;;5069601;28;20275;-65
2021/12/05 05:47:02;;;;;;;8.63;5.85;;;1.50;90.40;;;;;;5068640;28;20032;-65
2021/12/05 05:52:15;;;;;;;8.88;5.78;;;1.50;90.40;;;;;;5077712;28;20043;-64
2021/12/05 05:54:45;;;;;;;9.15;6.55;;;1.50;90.40;;;;;;5078913;28;20033;-64
2021/12/05 05:57:41;;;;;;;10.45;7.35;;;1.50;90.50;;;;;;5069038;28;20024;-64
2021/12/05 06:00:13;;;;;;;10.48;6.57;;;1.40;90.50;;;;;;5088710;28;20028;-64
2021/12/05 06:05:27;;;;;;;10.00;6.53;;;1.40;90.70;;;;;;5069148;28;20044;-64
2021/12/05 06:07:57;;;;;;;8.45;6.13;;;1.50;90.70;;;;;;5058831;28;20162;-65
2021/12/05 06:10:31;;;;;;;7.50;5.90;;;1.40;90.60;;;;;;5060763;28;20373;-65
2021/12/05 06:12:59;;;;;;;8.75;6.53;;;1.40;90.60;;;;;;5051660;28;20020;-65
2021/12/05 06:15:29;;;;;;;9.25;6.60;;;1.40;90.60;;;;;;5068722;28;20657;-65
2021/12/05 06:17:56;;;;;;;9.10;6.82;;;1.40;90.70;;;;;;5059384;28;20479;-66
2021/12/05 06:20:30;;;;;;;9.95;6.50;;;1.50;90.70;;;;;;5068657;28;20043;-65
2021/12/05 06:22:56;;;;;;;8.60;6.20;;;1.50;90.80;;;;;;5064115;28;20043;-65
2021/12/05 06:25:25;;;;;;;9.70;6.03;;;1.40;90.70;;;;;;5068351;28;20021;-64
2021/12/05 06:27:57;;;;;;;11.65;7.30;;;1.50;90.70;;;;;;5068671;28;20529;-64
2021/12/05 06:46:23;;;;;;;10.02;7.07;;;1.50;90.70;;;;;;5071872;28;20029;-62
2021/12/05 06:48:50;;;;;;;10.35;7.55;;;1.50;90.70;;;;;;5070621;28;20060;-61
2021/12/05 06:51:21;;;;;;;10.70;7.55;;;1.50;90.60;;;;;;5071606;28;20039;-61
2021/12/05 06:53:47;;;;;;;11.80;8.43;;;1.40;90.70;;;;;;5071635;28;20029;-62
2021/12/05 06:56:14;;;;;;;12.52;7.80;;;1.40;90.80;;;;;;5071890;28;20013;-62
2021/12/05 06:58:41;;;;;;;11.10;7.63;;;1.50;90.90;;;;;;5071705;28;20047;-62
2021/12/05 07:01:10;;;;;;;12.32;7.43;;;1.50;91.00;;;;;;5070895;28;20025;-62
2021/12/05 07:03:42;;;;;;;9.52;7.28;;;1.50;90.90;;;;;;5060015;28;20043;-62
2021/12/05 07:06:11;;;;;;;10.65;7.40;;;1.50;90.90;;;;;;5071540;28;20064;-62
2021/12/05 07:08:41;;;;;;;11.88;8.63;;;1.50;91.00;;;;;;5065055;28;20090;-61
2021/12/05 07:16:46;;;;;;;10.90;7.85;;;1.60;91.00;;;;;;5071632;28;20043;-62
2021/12/05 07:19:39;;;;;;;14.05;8.60;;;1.60;90.90;;;;;;5070973;28;20047;-62
2021/12/05 07:22:17;;;;;;;11.88;7.65;;;1.60;90.80;;;;;;5057282;28;20028;-62
2021/12/05 07:24:49;;;;;;;12.77;8.57;;;1.60;91.00;;;;;;5070351;28;20106;-62
2021/12/05 07:41:48;;;;;;;16.98;10.27;;;1.60;91.00;;;;;;5071315;28;20101;-62
2021/12/05 07:44:01;;;;;;;15.25;10.35;;;1.60;91.00;;;;;;5066529;28;20036;-63
2021/12/05 07:46:29;;;;;;;13.15;8.80;;;1.60;91.10;;;;;;5051314;28;20102;-63
2021/12/05 07:48:56;;;;;;;15.68;9.70;;;1.70;91.10;;;;;;5040382;28;20040;-63
2021/12/05 07:51:28;;;;;;;17.42;10.07;;;1.70;91.10;;;;;;5052933;28;20373;-63
2021/12/05 08:15:26;;;;;;;22.95;13.38;;;1.70;91.30;;;;;;5070310;28;20130;-64
2021/12/05 08:17:55;;;;;;;18.92;11.93;;;1.70;91.30;;;;;;5070596;28;20438;-64
2021/12/05 08:20:33;;;;;;;20.38;12.82;;;1.70;91.40;;;;;;5070258;28;20062;-64
2021/12/05 08:23:02;;;;;;;21.45;13.27;;;1.80;91.40;;;;;;5060554;28;20028;-64
2021/12/05 08:25:32;;;;;;;22.23;13.45;;;1.80;91.30;;;;;;5070507;28;20040;-64
2021/12/05 08:28:21;;;;;;;20.50;12.45;;;1.80;91.40;;;;;;5070101;28;20145;-64
2021/12/05 08:31:11;;;;;;;18.83;12.13;;;1.70;91.30;;;;;;5063193;28;20046;-64
2021/12/05 08:34:00;;;;;;;21.17;12.95;;;1.70;91.40;;;;;;5070190;28;20090;-63
2021/12/05 08:44:28;;;;;;;18.00;10.73;;;1.90;91.70;;;;;;5070547;28;20032;-62
2021/12/05 10:08:34;;;;;;;15.73;10.40;;;2.30;91.60;;;;;;5055874;28;20032;-62
2021/12/05 10:13:34;;;;;;;17.38;12.57;;;2.30;91.50;;;;;;5049841;28;20025;-61
2021/12/05 10:16:22;;;;;;;15.10;10.82;;;2.30;91.60;;;;;;5055297;28;20373;-62
2021/12/05 10:38:28;;;;;;;14.63;10.38;;;2.40;91.40;;;;;;5052910;28;20048;-64
2021/12/05 10:41:21;;;;;;;14.93;10.60;;;2.40;91.30;;;;;;5052514;28;20039;-64
2021/12/05 10:43:54;;;;;;;14.95;10.70;;;2.40;91.30;;;;;;5032883;28;20497;-64
2021/12/05 10:46:25;;;;;;;14.48;10.68;;;2.40;91.30;;;;;;5037633;28;20032;-64
2021/12/05 10:48:55;;;;;;;14.52;11.38;;;2.40;91.30;;;;;;5045908;28;20029;-65
2021/12/05 10:51:27;;;;;;;;;;;2.40;91.30;;;;;;5046330;28;20033;-64
2021/12/05 10:54:07;;;;;;;14.82;10.40;;;2.40;91.30;;;;;;5047380;28;19916;-65
2021/12/05 10:56:44;;;;;;;15.32;9.50;;;2.40;91.30;;;;;;5040960;28;20056;-64
2021/12/05 10:59:38;;;;;;;16.73;9.85;;;2.40;91.40;;;;;;5051244;28;20036;-64
2021/12/05 11:02:13;;;;;;;12.57;9.88;;;2.40;91.40;;;;;;5047919;28;20033;-64
2021/12/05 11:04:49;;;;;;;17.50;10.82;;;2.40;91.30;;;;;;5050332;28;20082;-64
2021/12/05 11:07:18;;;;;;;13.55;10.27;;;2.50;91.40;;;;;;5051141;28;20053;-64
2021/12/05 11:09:52;;;;;;;15.68;9.75;;;2.50;91.30;;;;;;5051428;28;20024;-64
2021/12/05 11:12:39;;;;;;;15.73;11.05;;;2.50;91.30;;;;;;5051027;28;20399;-65
2021/12/05 11:15:13;;;;;;;13.98;10.48;;;2.50;91.30;;;;;;5050871;28;20029;-65
2021/12/05 11:17:46;;;;;;;16.10;11.18;;;2.60;91.30;;;;;;5050299;28;20347;-65
2021/12/05 11:20:28;;;;;;;16.00;11.32;;;2.50;91.30;;;;;;5054754;28;20454;-65
2021/12/05 11:22:54;;;;;;;14.35;10.18;;;2.50;91.30;;;;;;5050789;28;20090;-65
2021/12/05 11:25:31;;;;;;;15.68;11.45;;;2.60;91.20;;;;;;5051248;28;20366;-64
2021/12/05 11:28:00;;;;;;;16.60;12.32;;;2.60;91.30;;;;;;5056950;28;20033;-64
2021/12/05 11:30:32;;;;;;;20.23;10.60;;;2.60;91.30;;;;;;5071183;28;20028;-64
2021/12/05 11:33:13;;;;;;;16.08;11.32;;;2.70;91.20;;;;;;5054599;28;20112;-65
2021/12/05 11:35:53;;;;;;;16.25;10.90;;;2.60;91.10;;;;;;5072495;28;20617;-66
2021/12/05 11:38:38;;;;;;;17.77;10.70;;;2.70;91.10;;;;;;5068566;28;20024;-66
2021/12/05 11:41:23;;;;;;;14.63;10.35;;;2.80;91.20;;;;;;5071357;28;20108;-66
2021/12/05 11:44:07;;;;;;;17.27;11.95;;;2.90;91.10;;;;;;5070885;28;20035;-67
2021/12/05 11:46:42;;;;;;;14.45;10.73;;;2.90;91.00;;;;;;5068695;28;20032;-66
2021/12/05 11:49:15;;;;;;;15.90;10.95;;;2.90;91.00;;;;;;5054565;28;20354;-66
2021/12/05 11:51:56;;;;;;;15.95;10.23;;;2.90;90.90;;;;;;5055775;28;20031;-66
2021/12/05 11:54:30;;;;;;;14.60;10.65;;;2.90;90.70;;;;;;5071794;28;20470;-65
2021/12/05 11:57:11;;;;;;;15.27;11.57;;;3.00;90.80;;;;;;5071089;28;20029;-65
2021/12/05 12:00:15;;;;;;;20.27;15.50;;;3.00;90.70;;;;;;5070950;28;20032;-64
2021/12/05 12:02:44;;;;;;;14.10;11.07;;;3.00;90.60;;;;;;5065567;28;20445;-63
2021/12/05 12:05:21;;;;;;;20.48;11.25;;;2.90;90.50;;;;;;5068495;28;20400;-62
2021/12/05 12:08:07;;;;;;;14.50;11.43;;;3.00;90.60;;;;;;5066437;28;20102;-63
2021/12/05 12:10:57;;;;;;;14.93;12.05;;;2.90;90.50;;;;;;5060625;28;20033;-63
2021/12/05 12:13:29;;;;;;;17.25;10.70;;;2.90;90.60;;;;;;5064069;28;20031;-64
2021/12/05 12:16:02;;;;;;;17.35;12.20;;;2.90;90.60;;;;;;5063999;28;20090;-64
2021/12/05 12:18:39;;;;;;;15.30;11.23;;;2.90;90.60;;;;;;5068228;28;20029;-65
2021/12/05 12:21:18;;;;;;;13.15;10.18;;;2.90;90.60;;;;;;5062647;28;20369;-66
2021/12/05 12:23:48;;;;;;;15.75;11.68;;;2.90;90.70;;;;;;5061023;28;20608;-66
2021/12/05 12:26:16;;;;;;;19.20;11.93;;;3.00;90.80;;;;;;5064449;28;20028;-65
2021/12/05 12:28:46;;;;;;;16.95;11.77;;;3.00;90.80;;;;;;5070368;28;20047;-64
2021/12/05 12:31:25;;;;;;;16.13;11.18;;;3.00;90.80;;;;;;5060584;28;20048;-63
2021/12/05 12:33:57;;;;;;;15.63;10.07;;;3.10;90.90;;;;;;5060844;28;20063;-62
2021/12/05 12:36:51;;;;;;;15.32;11.38;;;3.20;90.80;;;;;;5060908;28;20037;-62
2021/12/05 12:39:20;;;;;;;16.67;10.70;;;3.30;91.10;;;;;;5062703;28;20020;-61
2021/12/05 12:42:20;;;;;;;14.82;10.98;;;3.30;90.70;;;;;;5063268;28;20082;-61
2021/12/05 12:45:12;;;;;;;14.15;10.80;;;3.20;90.40;;;;;;5068542;28;20036;-61
2021/12/05 12:47:59;;;;;;;15.68;9.98;;;3.20;90.40;;;;;;5068960;28;20044;-62
2021/12/05 12:50:36;;;;;;;12.50;9.93;;;3.20;90.40;;;;;;5068941;28;20048;-63
2021/12/05 12:53:01;;;;;;;13.77;9.88;;;3.20;90.50;;;;;;5069070;28;20036;-63
2021/12/05 12:55:36;;;;;;;13.95;10.68;;;3.20;90.40;;;;;;5056925;28;20028;-63
2021/12/05 12:58:07;;;;;;;14.65;10.63;;;3.10;90.40;;;;;;5069502;28;20072;-63
2021/12/05 13:00:36;;;;;;;12.50;9.88;;;3.10;90.30;;;;;;5068113;28;20024;-63
2021/12/05 13:11:55;;;;;;;13.50;10.85;;;3.00;90.60;;;;;;5082440;28;20129;-60
2021/12/05 13:14:23;;;;;;;15.50;10.05;;;2.90;90.40;;;;;;5053516;28;20078;-61
2021/12/05 13:16:50;;;;;;;15.30;10.07;;;2.80;90.40;;;;;;5068233;28;20035;-61
2021/12/05 13:19:26;;;;;;;12.38;9.85;;;2.80;90.50;;;;;;5069453;28;20028;-61
2021/12/05 13:22:02;;;;;;;13.52;9.80;;;2.70;90.50;;;;;;5056406;28;20040;-60
2021/12/05 13:25:01;;;;;;;13.80;9.35;;;2.60;90.60;;;;;;5063495;28;20097;-63
2021/12/05 13:27:31;;;;;;;12.77;9.70;;;2.60;90.60;;;;;;5075498;28;20032;-64
2021/12/05 13:29:59;;;;;;;11.32;8.50;;;2.70;90.70;;;;;;5071704;28;20036;-64
2021/12/05 13:32:44;;;;;;;12.70;9.07;;;2.50;90.60;;;;;;5066382;28;20039;-64
2021/12/05 13:35:12;;;;;;;15.68;13.60;;;2.60;90.80;;;;;;5036860;28;20082;-64
2021/12/05 13:37:57;;;;;;;14.25;9.35;;;2.60;90.70;;;;;;5058891;28;20021;-64
2021/12/05 13:40:26;;;;;;;19.70;10.35;;;2.60;91.00;;;;;;5067697;28;20107;-63
2021/12/05 13:43:06;;;;;;;13.45;9.60;;;2.70;91.30;;;;;;5068697;28;20497;-63
2021/12/05 13:45:53;;;;;;;;;;;2.70;91.00;;;;;;5069863;28;20033;-62
2021/12/05 13:48:25;;;;;;;11.75;8.85;;;2.70;90.70;;;;;;5068378;28;19909;-62
2021/12/05 13:51:04;;;;;;;12.18;9.38;;;2.60;90.80;;;;;;5067005;28;20143;-62
2021/12/05 13:53:35;;;;;;;12.80;10.00;;;2.60;90.80;;;;;;5070954;28;20029;-61
2021/12/05 13:56:09;;;;;;;11.05;8.63;;;2.60;90.70;;;;;;5072982;28;20052;-61
2021/12/05 13:58:41;;;;;;;12.30;9.40;;;2.50;90.80;;;;;;5072975;28;20392;-61
2021/12/05 14:01:34;;;;;;;12.35;9.52;;;2.50;90.70;;;;;;5072068;28;20028;-61
2021/12/05 14:04:19;;;;;;;12.98;10.45;;;2.50;90.80;;;;;;5072420;28;20384;-61
2021/12/05 14:06:53;;;;;;;13.20;10.73;;;2.40;90.80;;;;;;5072425;28;20071;-61
2021/12/05 14:09:40;;;;;;;13.52;10.77;;;2.40;90.90;;;;;;5072894;28;20524;-62
2021/12/05 14:12:31;;;;;;;13.65;10.35;;;2.40;91.00;;;;;;5068397;28;20021;-62
2021/12/05 14:15:06;;;;;;;13.82;9.73;;;2.30;90.90;;;;;;5072400;28;20458;-62
2021/12/05 14:17:35;;;;;;;13.77;10.63;;;2.30;91.00;;;;;;5072439;28;20104;-63
2021/12/05 14:20:06;;;;;;;13.82;10.50;;;2.30;91.10;;;;;;5072766;28;20454;-63
2021/12/05 14:22:35;;;;;;;12.63;9.57;;;2.40;91.20;;;;;;5060960;28;20032;-63
2021/12/05 14:25:07;;;;;;;12.82;10.25;;;2.40;91.10;;;;;;5044961;28;20035;-63
2021/12/05 14:27:40;;;;;;;14.20;11.13;;;2.30;91.20;;;;;;5056937;28;20029;-62
2021/12/05 14:30:11;;;;;;;17.88;13.95;;;2.30;91.10;;;;;;5056193;28;20110;-62
2021/12/05 14:32:42;;;;;;;16.20;12.35;;;2.30;91.20;;;;;;5064353;28;20036;-61
2021/12/05 14:35:13;;;;;;;17.58;14.20;;;2.30;91.20;;;;;;5064362;28;20024;-60
2021/12/05 14:37:46;;;;;;;14.85;11.93;;;2.30;91.20;;;;;;5054888;28;20033;-60
2021/12/05 14:40:16;;;;;;;18.35;13.75;;;2.30;91.20;;;;;;5063478;28;20043;-60
2021/12/05 14:42:47;;;;;;;21.65;17.83;;;2.30;91.20;;;;;;5069719;28;20052;-59
2021/12/05 14:45:27;;;;;;;26.58;21.10;;;2.30;91.20;;;;;;5071331;28;20024;-58
2021/12/05 14:47:55;;;;;;;19.88;15.57;;;2.30;91.20;;;;;;5071599;28;20028;-58
2021/12/05 14:50:40;;;;;;;18.13;14.27;;;2.30;91.20;;;;;;5069962;28;20036;-59
2021/12/05 14:53:10;;;;;;;15.45;13.13;;;2.20;91.10;;;;;;5071136;28;20445;-60
2021/12/05 14:55:36;;;;;;;;;;;2.20;91.20;;;;;;5071654;28;20119;-61
2021/12/05 14:58:06;;;;;;;35.00;26.90;;;2.20;91.20;;;;;;5071340;28;20391;-61
2021/12/05 15:00:37;;;;;;;;;;;2.20;91.10;;;;;;5058521;28;20048;-61
2021/12/05 15:03:14;;;;;;;40.50;23.73;;;2.10;91.10;;;;;;5054838;28;19908;-61
2021/12/05 15:05:47;;;;;;;67.45;36.58;;;2.10;91.30;;;;;;5068368;28;20037;-61
2021/12/05 15:08:17;;;;;;;37.40;33.47;;;2.20;91.30;;;;;;5065785;28;20521;-60
2021/12/05 15:10:47;;;;;;;14.18;11.60;;;2.10;91.20;;;;;;5068576;28;20028;-60
2021/12/05 15:13:16;;;;;;;;;;;2.10;91.30;;;;;;5071460;28;20483;-60
2021/12/05 15:15:43;;;;;;;14.95;11.45;;;2.10;91.20;;;;;;5056901;28;19951;-60
2021/12/05 15:18:22;;;;;;;18.77;12.73;;;2.10;91.20;;;;;;5071206;28;20047;-60
2021/12/05 15:20:49;;;;;;;16.90;12.02;;;2.10;91.20;;;;;;5049092;28;20050;-60
2021/12/05 15:23:16;;;;;;;17.50;12.68;;;2.10;91.30;;;;;;5070818;28;20510;-60
2021/12/05 15:25:44;;;;;;;19.02;13.77;;;2.10;91.30;;;;;;5070324;28;20044;-60
2021/12/05 15:28:12;;;;;;;22.75;14.60;;;2.00;91.30;;;;;;5069912;28;20465;-60
2021/12/05 15:30:46;;;;;;;18.23;13.15;;;2.00;91.40;;;;;;5055613;28;20063;-60
2021/12/05 15:33:15;;;;;;;20.00;13.80;;;2.00;91.40;;;;;;5070705;28;20017;-58
2021/12/05 15:35:43;;;;;;;19.42;14.15;;;2.00;91.40;;;;;;5070985;28;20458;-58
2021/12/05 15:38:21;;;;;;;22.42;15.55;;;2.10;91.40;;;;;;5070756;28;20685;-59
2021/12/05 15:40:54;;;;;;;20.83;14.98;;;2.00;91.40;;;;;;5070718;28;20032;-60
2021/12/05 15:43:25;;;;;;;26.98;17.83;;;2.00;91.50;;;;;;5070777;28;20456;-59
2021/12/05 15:45:58;;;;;;;22.63;17.40;;;2.00;91.50;;;;;;5070999;28;20103;-59
2021/12/05 15:48:31;;;;;;;27.83;18.05;;;2.00;91.40;;;;;;5054063;28;20043;-59
2021/12/05 15:51:04;;;;;;;29.48;18.70;;;2.00;91.50;;;;;;5070337;28;20105;-57
2021/12/05 15:53:33;;;;;;;32.15;20.73;;;2.10;91.60;;;;;;5070751;28;20460;-59
2021/12/05 15:56:03;;;;;;;30.95;20.98;;;2.00;91.40;;;;;;5070329;28;20029;-60
2021/12/05 15:59:02;;;;;;;31.13;21.48;;;2.10;91.40;;;;;;5053796;28;20404;-59
2021/12/05 16:01:29;;;;;;;30.65;20.75;;;2.10;91.40;;;;;;5065597;28;20056;-59
2021/12/05 16:04:05;;;;;;;30.23;20.42;;;2.00;91.30;;;;;;5068197;28;20031;-58
2021/12/05 16:06:40;;;;;;;31.08;19.67;;;2.00;91.20;;;;;;5070353;28;20150;-59
2021/12/05 16:09:17;;;;;;;32.35;21.05;;;2.10;91.30;;;;;;5070536;28;20028;-59
2021/12/05 16:11:44;;;;;;;29.88;21.05;;;2.10;91.30;;;;;;5071155;28;20039;-59
2021/12/05 16:14:11;;;;;;;33.58;23.13;;;2.10;91.30;;;;;;5045282;28;20013;-59
2021/12/05 16:16:38;;;;;;;34.45;21.88;;;2.00;91.20;;;;;;5069676;28;20453;-59
2021/12/05 16:19:10;;;;;;;36.65;22.13;;;2.00;91.20;;;;;;5070541;28;20366;-59
2021/12/05 16:21:41;;;;;;;33.83;21.15;;;2.00;91.30;;;;;;5056436;28;20028;-59
2021/12/05 16:24:17;;;;;;;32.88;22.42;;;2.00;91.30;;;;;;5069857;28;20040;-59
2021/12/05 16:26:48;;;;;;;32.58;20.88;;;2.00;91.30;;;;;;5069996;28;20484;-56
2021/12/05 16:29:27;;;;;;;36.20;24.08;;;2.00;91.20;;;;;;5059092;28;20181;-55
2021/12/05 16:31:59;;;;;;;30.60;22.00;;;2.00;91.20;;;;;;5069119;28;20362;-58
2021/12/05 16:34:29;;;;;;;34.22;22.80;;;2.00;91.20;;;;;;5069181;28;20420;-58
2021/12/05 16:37:14;;;;;;;31.65;21.35;;;2.00;91.20;;;;;;5067892;28;20025;-57
2021/12/05 16:39:44;;;;;;;34.95;23.35;;;2.00;91.20;;;;;;5049825;28;20033;-56
2021/12/05 16:42:17;;;;;;;33.80;20.55;;;2.00;91.20;;;;;;5060697;28;20024;-52
2021/12/05 16:44:51;;;;;;;31.55;21.42;;;1.90;91.20;;;;;;5069700;28;20047;-54
2021/12/05 16:47:20;;;;;;;30.70;20.25;;;1.90;91.20;;;;;;5069724;28;20039;-57
2021/12/05 16:49:49;;;;;;;29.05;20.48;;;1.90;91.10;;;;;;5069752;28;20509;-53
2021/12/05 16:52:37;;;;;;;33.35;20.38;;;1.90;91.20;;;;;;5069385;28;20111;-58
2021/12/05 16:55:21;;;;;;;29.65;19.90;;;1.90;91.20;;;;;;5069827;28;20033;-53
2021/12/05 16:58:14;;;;;;;31.52;19.60;;;1.80;91.20;;;;;;5069575;28;20429;-56
2021/12/05 17:00:38;;;;;;;27.25;19.88;;;1.90;91.30;;;;;;5068126;28;20044;-58
2021/12/05 17:03:07;;;;;;;26.80;18.67;;;1.90;91.40;;;;;;5061788;28;20036;-55
2021/12/05 17:05:44;;;;;;;30.73;21.55;;;1.80;91.30;;;;;;5069270;28;20040;-56
2021/12/05 17:08:28;;;;;;;33.85;20.85;;;1.80;91.30;;;;;;5068752;28;20329;-55
2021/12/05 17:11:09;;;;;;;33.45;20.70;;;1.80;91.30;;;;;;5064879;28;20085;-51
2021/12/05 17:13:52;;;;;;;30.00;18.88;;;1.80;91.30;;;;;;5049429;28;20025;-56
2021/12/05 17:16:41;;;;;;;27.73;19.38;;;1.80;91.40;;;;;;5053628;28;20059;-51
2021/12/05 17:19:10;;;;;;;28.15;19.25;;;1.90;91.40;;;;;;5069290;28;20025;-55
2021/12/05 17:21:55;;;;;;;25.25;19.20;;;1.80;91.40;;;;;;5069295;28;20104;-53
2021/12/05 17:24:29;;;;;;;24.08;16.63;;;1.80;91.30;;;;;;5069156;28;20040;-55
2021/12/05 17:27:05;;;;;;;26.40;18.20;;;1.70;91.30;;;;;;5068229;28;20413;-50
2021/12/05 17:29:39;;;;;;;24.33;17.05;;;1.60;91.30;;;;;;5068876;28;20120;-57
2021/12/05 17:32:16;;;;;;;29.13;18.40;;;1.60;91.40;;;;;;5068623;28;20040;-57
2021/12/05 17:34:50;;;;;;;24.15;18.65;;;1.70;91.60;;;;;;5069043;28;20032;-54
2021/12/05 17:37:23;;;;;;;25.55;18.58;;;1.60;91.50;;;;;;5068799;28;20025;-57
2021/12/05 17:39:51;;;;;;;26.17;18.73;;;1.60;91.50;;;;;;5069227;28;20039;-57
2021/12/05 17:42:24;;;;;;;30.60;20.80;;;1.60;91.60;;;;;;5068422;28;20037;-55
2021/12/05 17:44:55;;;;;;;28.08;19.00;;;1.60;91.60;;;;;;5068528;28;20095;-56
2021/12/05 17:47:24;;;;;;;28.13;19.75;;;1.60;91.60;;;;;;5068575;28;20023;-54
2021/12/05 17:49:52;;;;;;;28.50;18.45;;;1.50;91.60;;;;;;5069073;28;20060;-57
2021/12/05 17:52:23;;;;;;;27.50;18.52;;;1.60;91.60;;;;;;5068452;28;20028;-56
2021/12/05 17:55:06;;;;;;;24.23;16.95;;;1.50;91.70;;;;;;5068466;28;20029;-55
2021/12/05 17:57:40;;;;;;;23.67;17.27;;;1.50;91.70;;;;;;5069224;28;20029;-56
2021/12/05 18:00:35;;;;;;;22.85;17.08;;;1.60;91.70;;;;;;5068763;28;20060;-53
2021/12/05 18:03:06;;;;;;;25.05;17.25;;;1.60;91.80;;;;;;5055847;28;20028;-52
2021/12/05 18:05:51;;;;;;;24.50;16.95;;;1.60;91.70;;;;;;5068820;28;20036;-54
2021/12/05 18:08:21;;;;;;;25.35;18.02;;;1.60;91.70;;;;;;5067921;28;20117;-55
2021/12/05 18:10:54;;;;;;;25.55;18.13;;;1.60;91.70;;;;;;5072699;28;20039;-54
2021/12/05 18:13:23;;;;;;;26.88;16.77;;;1.60;91.80;;;;;;5068445;28;20040;-52
2021/12/05 18:16:03;;;;;;;22.13;17.02;;;1.60;91.80;;;;;;5068472;28;20052;-55
2021/12/05 18:18:32;;;;;;;24.35;15.75;;;1.60;91.70;;;;;;5051407;28;20127;-53
2021/12/05 18:21:01;;;;;;;23.90;16.48;;;1.60;91.60;;;;;;5068525;28;20333;-55
2021/12/05 18:23:27;;;;;;;24.67;16.63;;;1.50;91.70;;;;;;5068664;28;20055;-57
2021/12/05 18:25:54;;;;;;;25.70;15.60;;;1.60;91.70;;;;;;5068394;28;20107;-56
2021/12/05 18:28:21;;;;;;;23.20;16.88;;;1.60;91.70;;;;;;5042655;28;20060;-57
2021/12/05 18:30:50;;;;;;;25.80;16.58;;;1.60;91.70;;;;;;5028476;28;20083;-56
2021/12/05 18:33:20;;;;;;;28.73;18.40;;;1.60;91.70;;;;;;5027154;28;20041;-56
2021/12/05 18:35:47;;;;;;;26.60;16.98;;;1.70;91.70;;;;;;5028739;28;20029;-54
2021/12/05 18:38:21;;;;;;;25.38;18.80;;;1.70;91.70;;;;;;5029954;28;20435;-57
2021/12/05 18:40:52;;;;;;;27.55;18.50;;;1.70;91.80;;;;;;5031754;28;20365;-58
2021/12/05 18:43:26;;;;;;;26.70;18.40;;;1.70;91.80;;;;;;5013970;28;20021;-56
2021/12/05 18:45:54;;;;;;;23.23;16.80;;;1.70;91.80;;;;;;5032373;28;20017;-56